Terminal Aerodrome Forecast
Issued by NWS

Home | Current Version | Previous Version | Graphics & Text | Print | Product List | Glossary On
Versions: 1 2 3 4 5 6 7 8 9 10 11 12 13 14 15 16
730
FTUS42 KMHX 070903 AAA
TAFOAJ
TAF AMD
KOAJ 070903Z 0709/0806 30005KT P6SM OVC007
     FM071200 32004KT P6SM SCT030
     FM071500 33006KT P6SM SCT030
     FM072300 VRB03KT P6SM SCT030
      AMD LTD TO CLD VIS AND WIND=

USA.gov is the U.S. government's official web portal to all federal, state and local government web resources and services.